Time;durP1;ratioP1;P1;durP2;ratioP2;P2;SDS_P1;SDS_P2;PMS_P1;PMS_P2;Temp;Humidity;BMP_temperature;BMP_pressure;BME280_temperature;BME280_humidity;BME280_pressure;Samples;Min_cycle;Max_cycle;Signal;HPM_P1;HPM_P2
2022/03/16 00:01:59;;;;;;;40.53;12.63;;;7.00;97.30;;;;;;5030561;28;20841;-90
2022/03/16 00:04:24;;;;;;;32.80;12.20;;;7.00;97.30;;;;;;5031068;28;20204;-90
2022/03/16 00:06:50;;;;;;;31.20;12.60;;;7.00;97.30;;;;;;5030629;28;20229;-90
2022/03/16 00:09:16;;;;;;;29.60;11.90;;;6.90;97.30;;;;;;5031342;28;20230;-90
2022/03/16 00:11:42;;;;;;;27.23;10.70;;;6.90;97.30;;;;;;5031787;28;20195;-90
2022/03/16 00:14:07;;;;;;;33.00;12.27;;;6.90;97.30;;;;;;5029621;28;20211;-88
2022/03/16 00:16:33;;;;;;;25.30;11.50;;;6.90;97.30;;;;;;5029586;28;20514;-87
2022/03/16 00:18:59;;;;;;;33.37;13.23;;;6.90;97.30;;;;;;5031391;28;20176;-88
2022/03/16 00:21:24;;;;;;;35.23;12.57;;;6.90;97.30;;;;;;5031205;28;20181;-87
2022/03/16 00:23:50;;;;;;;25.40;11.10;;;6.80;97.30;;;;;;5029189;28;20224;-88
2022/03/16 00:26:16;;;;;;;25.60;11.20;;;6.80;97.30;;;;;;5029337;28;20176;-87
2022/03/16 00:28:41;;;;;;;29.53;11.30;;;6.80;97.30;;;;;;5029177;28;20188;-88
2022/03/16 00:31:07;;;;;;;31.90;13.97;;;6.80;97.30;;;;;;5028808;28;20180;-88
2022/03/16 00:33:33;;;;;;;36.17;13.93;;;6.80;97.30;;;;;;5029802;28;20200;-88
2022/03/16 00:35:58;;;;;;;32.30;11.83;;;6.80;97.30;;;;;;5029445;28;20197;-87
2022/03/16 00:38:24;;;;;;;30.20;12.10;;;6.70;97.30;;;;;;5029491;28;20699;-87
2022/03/16 00:40:51;;;;;;;32.30;12.30;;;6.70;97.30;;;;;;5041378;28;20176;-91
2022/03/16 00:43:17;;;;;;;37.00;14.53;;;6.70;97.30;;;;;;5045864;28;20439;-91
2022/03/16 00:45:43;;;;;;;28.77;12.87;;;6.70;97.30;;;;;;5043981;28;20419;-91
2022/03/16 00:48:09;;;;;;;29.97;13.23;;;6.70;97.30;;;;;;5045296;28;20477;-91
2022/03/16 00:50:36;;;;;;;32.77;12.90;;;6.70;97.30;;;;;;5048525;28;20428;-91
2022/03/16 00:53:02;;;;;;;36.93;13.10;;;6.70;97.30;;;;;;5048518;28;20227;-91
2022/03/16 00:55:29;;;;;;;38.00;15.50;;;6.70;97.30;;;;;;5047958;28;20550;-91
2022/03/16 01:08:49;;;;;;;32.47;14.20;;;6.70;97.30;;;;;;5003904;28;20429;-91
2022/03/16 01:11:15;;;;;;;33.60;14.93;;;6.70;97.30;;;;;;4971554;28;20424;-87
2022/03/16 01:13:42;;;;;;;41.43;15.13;;;6.60;97.30;;;;;;4972524;28;20433;-87
2022/03/16 01:16:09;;;;;;;41.60;15.77;;;6.60;97.30;;;;;;5020676;28;20709;-87
2022/03/16 01:18:34;;;;;;;39.53;13.77;;;6.60;97.30;;;;;;5028817;28;20407;-87
2022/03/16 01:21:00;;;;;;;35.90;13.67;;;6.60;97.30;;;;;;5028553;28;20415;-87
2022/03/16 01:23:25;;;;;;;39.17;14.10;;;6.50;97.30;;;;;;5028404;28;20897;-87
2022/03/16 01:25:51;;;;;;;41.30;16.47;;;6.50;97.30;;;;;;5029036;28;20177;-87
2022/03/16 01:28:17;;;;;;;37.73;14.50;;;6.50;97.30;;;;;;5028733;28;20669;-87
2022/03/16 01:30:43;;;;;;;39.83;14.67;;;6.50;97.30;;;;;;5028935;28;20661;-87
2022/03/16 01:33:08;;;;;;;33.83;12.70;;;6.50;97.30;;;;;;5028677;28;20243;-87
2022/03/16 01:35:34;;;;;;;37.47;12.50;;;6.40;97.30;;;;;;5028895;28;20233;-88
2022/03/16 01:38:00;;;;;;;41.40;15.10;;;6.50;97.30;;;;;;5025613;28;20196;-87
2022/03/16 01:40:25;;;;;;;34.63;12.53;;;6.40;97.30;;;;;;5037365;28;20171;-88
2022/03/16 01:42:51;;;;;;;36.03;13.23;;;6.40;97.30;;;;;;5048320;28;20684;-87
2022/03/16 01:45:16;;;;;;;41.37;14.77;;;6.40;97.30;;;;;;5047954;28;20649;-87
2022/03/16 01:47:42;;;;;;;35.57;13.60;;;6.40;97.30;;;;;;5042969;28;20672;-87
2022/03/16 01:50:08;;;;;;;37.73;13.93;;;6.40;97.30;;;;;;5029163;28;20184;-88
2022/03/16 01:52:34;;;;;;;39.67;15.13;;;6.40;97.30;;;;;;5029860;28;20228;-87
2022/03/16 01:55:04;;;;;;;34.70;13.70;;;6.40;97.30;;;;;;5028585;28;20453;-87
2022/03/16 01:57:33;;;;;;;34.63;13.50;;;6.40;97.30;;;;;;5046071;28;20696;-89
2022/03/16 01:59:58;;;;;;;32.60;13.70;;;6.40;97.30;;;;;;5049791;28;20402;-88
2022/03/16 02:02:24;;;;;;;37.33;13.97;;;6.40;97.30;;;;;;5029531;28;20465;-87
2022/03/16 02:04:49;;;;;;;32.93;13.23;;;6.40;97.30;;;;;;5032185;28;20187;-87
2022/03/16 02:07:15;;;;;;;36.10;12.10;;;6.40;97.30;;;;;;5031718;28;20549;-87
2022/03/16 02:09:41;;;;;;;42.70;17.33;;;6.40;97.30;;;;;;5032067;28;20180;-87
2022/03/16 02:12:11;;;;;;;38.70;13.57;;;6.40;97.30;;;;;;5031914;28;20455;-86
2022/03/16 02:14:37;;;;;;;38.53;13.90;;;6.40;97.30;;;;;;5032065;28;20186;-87
2022/03/16 02:17:03;;;;;;;42.03;15.63;;;6.40;97.30;;;;;;5031780;28;20847;-87
2022/03/16 02:19:28;;;;;;;40.00;14.10;;;6.40;97.30;;;;;;5032011;28;20263;-87
2022/03/16 02:22:01;;;;;;;37.33;14.90;;;6.40;97.30;;;;;;5032006;28;20518;-88
2022/03/16 02:24:29;;;;;;;37.23;14.80;;;6.30;97.30;;;;;;5031197;28;20196;-87
2022/03/16 02:26:55;;;;;;;38.17;15.50;;;6.20;97.30;;;;;;5030406;28;21004;-87
2022/03/16 02:29:21;;;;;;;41.17;14.27;;;6.20;97.30;;;;;;5031795;28;20434;-87
2022/03/16 02:31:47;;;;;;;39.40;14.37;;;6.10;97.30;;;;;;5032041;28;20411;-87
2022/03/16 02:34:12;;;;;;;38.97;14.10;;;6.10;97.30;;;;;;5030762;28;20192;-87
2022/03/16 02:36:38;;;;;;;37.33;15.53;;;6.00;97.30;;;;;;5031159;28;20287;-87
2022/03/16 02:39:04;;;;;;;37.43;14.17;;;6.00;97.30;;;;;;5031697;28;20702;-87
2022/03/16 02:41:29;;;;;;;43.67;14.60;;;6.00;97.30;;;;;;5031404;28;20176;-87
2022/03/16 02:43:55;;;;;;;46.97;15.87;;;6.00;97.30;;;;;;5031494;28;20212;-88
2022/03/16 02:46:22;;;;;;;34.50;13.27;;;6.00;97.30;;;;;;5031415;28;20172;-87
2022/03/16 02:48:47;;;;;;;44.47;16.10;;;6.00;97.30;;;;;;5029730;28;20169;-88
2022/03/16 02:51:13;;;;;;;39.73;14.60;;;5.90;97.30;;;;;;5031144;28;20744;-87
2022/03/16 02:53:39;;;;;;;40.80;15.10;;;5.90;97.30;;;;;;5030946;28;20572;-87
2022/03/16 02:56:05;;;;;;;33.13;13.13;;;5.90;97.30;;;;;;5030643;28;20454;-87
2022/03/16 02:58:30;;;;;;;38.83;12.83;;;5.90;97.30;;;;;;5030897;28;20540;-87
2022/03/16 03:00:56;;;;;;;36.90;13.57;;;5.90;97.30;;;;;;5030811;28;20247;-88
2022/03/16 03:03:22;;;;;;;39.07;14.37;;;5.80;97.30;;;;;;5030897;28;20199;-88
2022/03/16 03:05:48;;;;;;;45.40;15.03;;;5.80;97.30;;;;;;5038729;28;20176;-90
2022/03/16 03:08:14;;;;;;;37.50;15.50;;;5.80;97.30;;;;;;5037320;28;20414;-91
2022/03/16 03:10:40;;;;;;;41.03;14.47;;;5.80;97.30;;;;;;5036993;28;20454;-90
2022/03/16 03:13:05;;;;;;;38.77;16.70;;;5.70;97.30;;;;;;5035855;28;20224;-91
2022/03/16 03:19:05;;;;;;;42.17;14.30;;;5.60;97.30;;;;;;5035369;28;20765;-91
2022/03/16 03:53:28;;;;;;;39.93;13.00;;;5.30;97.30;;;;;;4896123;29;20481;-90
2022/03/16 03:57:13;;;;;;;42.17;13.00;;;5.30;97.30;;;;;;4866731;29;20935;-91
2022/03/16 04:10:57;;;;;;;38.77;13.07;;;5.20;97.30;;;;;;4792672;29;20576;-91
2022/03/16 04:13:22;;;;;;;48.30;14.80;;;5.10;97.30;;;;;;4791075;29;20439;-91
2022/03/16 04:15:48;;;;;;;42.67;13.70;;;5.10;97.30;;;;;;4941621;28;20454;-91
2022/03/16 04:18:13;;;;;;;35.90;13.27;;;5.00;97.30;;;;;;5031712;28;20172;-90
2022/03/16 04:20:39;;;;;;;35.70;13.33;;;5.00;97.30;;;;;;5031636;28;20267;-91
2022/03/16 04:23:05;;;;;;;48.23;13.30;;;5.00;97.30;;;;;;5032520;28;20544;-90
2022/03/16 04:25:30;;;;;;;35.20;12.77;;;4.90;97.30;;;;;;5063934;28;20172;-91
2022/03/16 04:27:56;;;;;;;35.77;11.67;;;4.90;97.30;;;;;;5063964;28;20626;-91
2022/03/16 04:30:21;;;;;;;35.77;13.27;;;4.90;97.30;;;;;;5064703;28;20180;-91
2022/03/16 04:32:51;;;;;;;32.43;12.70;;;4.80;97.30;;;;;;5032060;28;20200;-90
2022/03/16 04:35:17;;;;;;;40.20;13.43;;;4.70;97.30;;;;;;5044903;28;20176;-90
2022/03/16 04:37:43;;;;;;;48.33;15.03;;;4.70;97.30;;;;;;5030830;28;20467;-90
2022/03/16 04:40:09;;;;;;;37.07;12.10;;;4.70;97.30;;;;;;5031356;28;20421;-91
2022/03/16 04:42:34;;;;;;;35.63;13.27;;;4.60;97.30;;;;;;5030962;28;20246;-90
2022/03/16 04:45:00;;;;;;;39.33;12.70;;;4.60;97.30;;;;;;5031280;28;20412;-90
2022/03/16 04:47:25;;;;;;;40.23;12.70;;;4.50;97.30;;;;;;5029791;28;20180;-90
2022/03/16 04:49:51;;;;;;;42.87;13.63;;;4.50;97.30;;;;;;5029425;28;20187;-91
2022/03/16 04:52:17;;;;;;;36.47;13.60;;;4.50;97.30;;;;;;5030749;28;20181;-90
2022/03/16 04:54:42;;;;;;;34.77;13.03;;;4.40;97.30;;;;;;5031141;28;20492;-91
2022/03/16 04:57:08;;;;;;;36.40;14.33;;;4.40;97.30;;;;;;5030005;28;20196;-91
2022/03/16 04:59:33;;;;;;;30.87;12.20;;;4.40;97.30;;;;;;5030513;28;20180;-90
2022/03/16 05:01:59;;;;;;;32.27;12.17;;;4.30;97.30;;;;;;5029535;28;20279;-89
2022/03/16 05:04:25;;;;;;;48.77;15.00;;;4.30;97.30;;;;;;5029194;28;20611;-89
2022/03/16 05:06:50;;;;;;;40.27;14.80;;;4.30;97.30;;;;;;5029880;28;20180;-88
2022/03/16 05:09:16;;;;;;;38.23;14.03;;;4.30;97.30;;;;;;5029111;28;20650;-89
2022/03/16 05:11:42;;;;;;;29.90;12.80;;;4.20;97.30;;;;;;5029821;28;20634;-88
2022/03/16 05:14:09;;;;;;;29.83;12.60;;;4.20;97.30;;;;;;5029469;28;20657;-89
2022/03/16 05:16:35;;;;;;;39.60;12.20;;;4.10;97.30;;;;;;5028704;28;20658;-89
2022/03/16 05:19:01;;;;;;;33.43;11.93;;;4.10;97.30;;;;;;5027587;28;20412;-89
2022/03/16 05:21:27;;;;;;;37.27;12.07;;;4.00;97.30;;;;;;5028704;28;20430;-89
2022/03/16 05:23:52;;;;;;;37.47;11.87;;;4.00;97.30;;;;;;5029936;28;20203;-89
2022/03/16 05:26:18;;;;;;;37.87;12.13;;;3.90;97.30;;;;;;5029400;28;20184;-89
2022/03/16 05:28:44;;;;;;;37.27;12.40;;;3.90;97.30;;;;;;5028742;28;20215;-89
2022/03/16 05:31:10;;;;;;;33.40;12.20;;;3.90;97.30;;;;;;5028742;28;20497;-89
2022/03/16 05:33:36;;;;;;;36.90;12.57;;;3.80;97.30;;;;;;5029410;28;20431;-89
2022/03/16 05:36:02;;;;;;;36.63;11.57;;;3.80;97.30;;;;;;5029181;28;20212;-89
2022/03/16 05:38:28;;;;;;;33.30;12.70;;;3.70;97.30;;;;;;5031079;28;20180;-89
2022/03/16 05:40:54;;;;;;;39.37;14.40;;;3.70;97.30;;;;;;5033073;28;20426;-89
2022/03/16 05:43:21;;;;;;;39.90;15.57;;;3.60;97.30;;;;;;5032327;28;20201;-89
2022/03/16 05:45:49;;;;;;;47.50;15.13;;;3.60;97.30;;;;;;5032718;28;20184;-88
2022/03/16 05:48:15;;;;;;;40.67;15.87;;;3.60;97.30;;;;;;5034251;28;20415;-89
2022/03/16 05:50:44;;;;;;;49.40;17.87;;;3.60;97.30;;;;;;5033059;28;20472;-89
2022/03/16 05:53:10;;;;;;;46.43;19.20;;;3.60;97.30;;;;;;5033496;28;20446;-89
2022/03/16 05:55:36;;;;;;;36.57;16.17;;;3.60;97.30;;;;;;5031541;28;20928;-89
2022/03/16 05:58:01;;;;;;;56.37;18.00;;;3.60;97.30;;;;;;5032655;28;20419;-89
2022/03/16 06:00:29;;;;;;;50.07;18.50;;;3.60;97.30;;;;;;5032400;28;20335;-89
2022/03/16 06:02:54;;;;;;;43.23;15.87;;;3.60;97.30;;;;;;5032925;28;20257;-89
2022/03/16 06:05:20;;;;;;;45.53;15.07;;;3.70;97.30;;;;;;5033137;28;20971;-88
2022/03/16 06:07:46;;;;;;;36.00;14.83;;;3.70;97.30;;;;;;5032596;28;20373;-89
2022/03/16 06:10:17;;;;;;;52.70;16.90;;;3.80;97.30;;;;;;5033530;28;20169;-89
2022/03/16 06:13:00;;;;;;;43.63;16.60;;;3.80;97.30;;;;;;5033163;28;20192;-89
2022/03/16 06:15:28;;;;;;;51.20;16.70;;;3.90;97.30;;;;;;5032794;28;20411;-89
2022/03/16 06:17:58;;;;;;;40.10;15.73;;;3.90;97.30;;;;;;5031533;28;20463;-89
2022/03/16 06:20:25;;;;;;;45.83;16.20;;;4.00;97.30;;;;;;5032072;28;20817;-89
2022/03/16 06:22:50;;;;;;;39.70;14.73;;;4.00;97.30;;;;;;5032892;28;20453;-89
2022/03/16 06:25:17;;;;;;;34.20;13.83;;;4.10;97.30;;;;;;5032690;28;20502;-89
2022/03/16 06:27:42;;;;;;;37.13;12.53;;;4.10;97.30;;;;;;5032448;28;20208;-89
2022/03/16 06:30:09;;;;;;;36.13;12.70;;;4.10;97.30;;;;;;5032424;28;20443;-89
2022/03/16 06:32:35;;;;;;;38.20;13.57;;;4.10;97.30;;;;;;5032922;28;20235;-89
2022/03/16 06:35:02;;;;;;;39.10;14.23;;;4.10;97.30;;;;;;5032981;28;20430;-89
2022/03/16 06:37:28;;;;;;;42.50;14.23;;;4.10;97.30;;;;;;5032184;28;20454;-89
2022/03/16 06:39:54;;;;;;;40.33;13.73;;;4.20;97.30;;;;;;5033451;28;20864;-91
2022/03/16 06:42:19;;;;;;;45.63;13.93;;;4.30;97.30;;;;;;5033999;28;20580;-91
2022/03/16 06:44:45;;;;;;;55.37;16.57;;;4.40;97.30;;;;;;5032804;28;20173;-91
2022/03/16 06:47:10;;;;;;;32.80;13.10;;;4.50;97.30;;;;;;5032598;28;20688;-91
2022/03/16 06:49:36;;;;;;;36.17;15.47;;;4.60;97.30;;;;;;5031838;28;20179;-91
2022/03/16 06:52:02;;;;;;;41.20;14.27;;;4.70;97.30;;;;;;5033763;28;20254;-91
2022/03/16 06:54:28;;;;;;;46.20;15.47;;;4.80;97.30;;;;;;5032721;28;20196;-90
2022/03/16 06:56:55;;;;;;;41.13;14.97;;;4.90;97.30;;;;;;5032807;28;20566;-90
2022/03/16 06:59:20;;;;;;;44.07;16.10;;;5.00;97.30;;;;;;5031954;28;20411;-90
2022/03/16 07:01:46;;;;;;;29.60;13.63;;;5.10;97.30;;;;;;5031659;28;20414;-90
2022/03/16 07:04:11;;;;;;;45.40;14.07;;;5.20;97.30;;;;;;5032269;28;20203;-89
2022/03/16 07:06:37;;;;;;;33.83;12.77;;;5.30;97.30;;;;;;5032149;28;20192;-90
2022/03/16 07:09:03;;;;;;;35.10;13.50;;;5.40;97.30;;;;;;5031483;28;20230;-89
2022/03/16 07:11:28;;;;;;;35.50;13.13;;;5.50;97.30;;;;;;5031379;28;20184;-90
2022/03/16 07:16:41;;;;;;;35.13;12.37;;;5.80;97.30;;;;;;5033651;28;20716;-90
2022/03/16 07:19:07;;;;;;;36.43;13.70;;;6.00;97.30;;;;;;5032167;28;20446;-90
2022/03/16 07:21:33;;;;;;;32.97;12.20;;;6.10;97.30;;;;;;5031702;28;20506;-90
2022/03/16 07:23:58;;;;;;;32.53;13.20;;;6.20;97.30;;;;;;5031649;28;20851;-90
2022/03/16 07:26:24;;;;;;;30.37;11.13;;;6.40;97.30;;;;;;5031228;28;20180;-90
2022/03/16 07:28:51;;;;;;;38.03;13.33;;;6.50;97.30;;;;;;5031828;28;20203;-90
2022/03/16 07:31:17;;;;;;;30.50;11.40;;;6.60;97.30;;;;;;5032850;28;20773;-90
2022/03/16 07:33:42;;;;;;;24.33;10.37;;;6.60;97.30;;;;;;5031790;28;20439;-90
2022/03/16 07:36:08;;;;;;;36.63;12.83;;;6.70;97.30;;;;;;5031337;28;20525;-90
2022/03/16 07:38:34;;;;;;;32.83;11.80;;;6.80;97.30;;;;;;5032714;28;20200;-91
2022/03/16 07:41:02;;;;;;;29.10;10.83;;;6.90;97.30;;;;;;5031539;28;20177;-90
2022/03/16 07:43:31;;;;;;;24.60;11.10;;;7.00;97.30;;;;;;5033960;28;20929;-90
2022/03/16 07:45:58;;;;;;;26.53;11.33;;;7.10;97.30;;;;;;5031766;28;20418;-90
2022/03/16 07:48:24;;;;;;;24.43;11.33;;;7.30;97.30;;;;;;5031827;28;20533;-90
2022/03/16 07:50:50;;;;;;;31.00;11.50;;;7.40;97.30;;;;;;5030891;28;20506;-90
2022/03/16 07:53:16;;;;;;;24.87;10.67;;;7.50;97.30;;;;;;5031966;28;20199;-91
2022/03/16 07:55:42;;;;;;;29.77;11.90;;;7.60;97.30;;;;;;5031965;28;20423;-90
2022/03/16 07:58:07;;;;;;;32.77;12.07;;;7.80;97.30;;;;;;5032997;28;20416;-91
2022/03/16 08:00:33;;;;;;;26.17;11.67;;;7.90;97.30;;;;;;5031807;28;20258;-90
2022/03/16 08:03:01;;;;;;;29.60;11.40;;;8.00;97.30;;;;;;5032754;28;20199;-90
2022/03/16 08:05:27;;;;;;;23.90;10.90;;;8.10;97.30;;;;;;5032173;28;20913;-90
2022/03/16 08:07:53;;;;;;;32.10;11.60;;;8.20;97.30;;;;;;5033454;28;20498;-90
2022/03/16 08:10:19;;;;;;;28.90;11.40;;;8.30;97.30;;;;;;5032357;28;20941;-90
2022/03/16 08:12:45;;;;;;;31.13;12.67;;;8.40;97.30;;;;;;5032446;28;20287;-90
2022/03/16 08:15:11;;;;;;;22.10;9.80;;;8.50;97.30;;;;;;5032600;28;20855;-90
2022/03/16 08:17:36;;;;;;;23.43;11.67;;;8.60;97.30;;;;;;5032885;28;20693;-91
2022/03/16 08:20:02;;;;;;;27.27;11.47;;;8.80;97.30;;;;;;5032718;28;20173;-91
2022/03/16 08:22:33;;;;;;;29.07;11.57;;;8.90;97.30;;;;;;5032055;28;20586;-90
2022/03/16 08:25:00;;;;;;;29.10;10.97;;;9.00;97.30;;;;;;5033008;28;20437;-91
2022/03/16 08:27:27;;;;;;;28.33;10.97;;;9.10;97.30;;;;;;5032414;28;20916;-90
2022/03/16 08:29:53;;;;;;;30.23;10.70;;;9.20;97.30;;;;;;5032277;28;20442;-91
2022/03/16 08:32:20;;;;;;;21.10;10.87;;;9.20;97.30;;;;;;5032574;28;20498;-90
2022/03/16 08:34:46;;;;;;;24.23;10.77;;;9.30;97.30;;;;;;5033068;28;20415;-91
2022/03/16 08:37:12;;;;;;;28.47;11.70;;;9.30;97.30;;;;;;5032835;28;20466;-90
2022/03/16 08:39:39;;;;;;;28.83;11.50;;;9.40;97.30;;;;;;5032236;28;20419;-90
2022/03/16 08:42:06;;;;;;;32.03;11.10;;;9.50;97.30;;;;;;5031482;28;20498;-91
2022/03/16 08:44:32;;;;;;;26.83;11.40;;;9.60;97.30;;;;;;5031029;28;20438;-91
2022/03/16 08:46:58;;;;;;;23.93;10.70;;;9.80;97.30;;;;;;5031169;28;20419;-90
2022/03/16 08:49:24;;;;;;;28.60;11.13;;;9.90;97.30;;;;;;5030218;28;20180;-91
2022/03/16 08:51:50;;;;;;;20.70;10.30;;;10.00;97.30;;;;;;5030848;28;20419;-90
2022/03/16 08:54:16;;;;;;;26.03;11.20;;;10.10;97.30;;;;;;5031888;28;20200;-90
2022/03/16 08:56:45;;;;;;;21.90;10.40;;;10.20;97.30;;;;;;5029249;28;20461;-88
2022/03/16 08:59:11;;;;;;;24.70;10.37;;;10.30;97.30;;;;;;5028573;28;20419;-87
2022/03/16 09:01:37;;;;;;;23.10;10.10;;;10.50;97.30;;;;;;5028365;28;20525;-88
2022/03/16 09:04:03;;;;;;;27.20;11.23;;;10.70;97.30;;;;;;5028467;28;20431;-88
2022/03/16 09:06:29;;;;;;;25.80;10.80;;;10.80;97.30;;;;;;5028463;28;21092;-87
2022/03/16 09:08:55;;;;;;;20.43;10.13;;;11.00;97.30;;;;;;5028445;28;20187;-87
2022/03/16 09:11:21;;;;;;;20.13;9.10;;;11.20;97.30;;;;;;5028758;28;20427;-87
2022/03/16 09:13:49;;;;;;;20.00;8.93;;;11.20;97.30;;;;;;5029180;28;20214;-87
2022/03/16 09:16:15;;;;;;;25.13;10.43;;;11.20;97.30;;;;;;5028506;28;20275;-88
2022/03/16 09:18:41;;;;;;;22.67;9.60;;;11.40;97.30;;;;;;5028414;28;20931;-87
2022/03/16 09:21:07;;;;;;;22.70;9.83;;;11.50;97.30;;;;;;5028669;28;20427;-88
2022/03/16 09:23:33;;;;;;;19.20;8.50;;;11.50;97.30;;;;;;5029150;28;20200;-87
2022/03/16 09:26:02;;;;;;;20.20;10.03;;;11.50;97.30;;;;;;5029781;28;20422;-87
2022/03/16 09:28:28;;;;;;;18.90;8.67;;;11.50;97.30;;;;;;5029236;28;20554;-88
2022/03/16 09:30:54;;;;;;;18.73;8.67;;;11.60;97.30;;;;;;5029884;28;20407;-88
2022/03/16 09:33:24;;;;;;;16.87;8.27;;;11.70;97.30;;;;;;5029403;28;21014;-86
2022/03/16 09:35:51;;;;;;;18.67;7.80;;;11.80;97.30;;;;;;5029453;28;20434;-88
2022/03/16 09:38:18;;;;;;;23.90;9.00;;;11.80;97.30;;;;;;5029607;28;20407;-88
2022/03/16 09:40:45;;;;;;;23.30;8.90;;;11.90;97.30;;;;;;5028862;28;20658;-88
2022/03/16 09:43:17;;;;;;;18.10;8.20;;;12.00;97.30;;;;;;5029212;28;20446;-87
2022/03/16 09:46:02;;;;;;;12.70;6.97;;;12.20;97.30;;;;;;5030375;28;20522;-88
2022/03/16 09:48:29;;;;;;;15.47;7.57;;;12.40;96.50;;;;;;5029154;28;20442;-87
2022/03/16 09:50:56;;;;;;;16.63;7.77;;;12.60;96.60;;;;;;5029412;28;20411;-87
2022/03/16 09:53:26;;;;;;;15.93;7.90;;;12.60;96.20;;;;;;5036052;28;20426;-89
2022/03/16 09:55:52;;;;;;;25.53;8.17;;;12.50;94.30;;;;;;5049624;28;20415;-88
2022/03/16 09:58:20;;;;;;;18.83;9.07;;;12.40;95.00;;;;;;5048817;28;20414;-88
2022/03/16 10:00:46;;;;;;;23.07;9.80;;;12.30;95.60;;;;;;5047419;28;20525;-88
2022/03/16 10:03:12;;;;;;;16.00;7.57;;;12.40;95.90;;;;;;5048748;28;20458;-89
2022/03/16 10:05:39;;;;;;;15.27;7.10;;;12.50;95.80;;;;;;5049087;28;20476;-88
2022/03/16 10:08:08;;;;;;;22.10;8.70;;;12.60;95.30;;;;;;5048692;28;20180;-88
2022/03/16 10:13:24;;;;;;;21.83;9.30;;;12.80;94.90;;;;;;5050381;28;20445;-88
2022/03/16 10:15:51;;;;;;;20.33;8.50;;;13.00;95.50;;;;;;5049249;28;20466;-89
2022/03/16 10:18:19;;;;;;;19.07;8.50;;;13.20;95.60;;;;;;5049400;28;20768;-87
2022/03/16 10:20:46;;;;;;;26.40;10.03;;;13.50;94.60;;;;;;5050669;28;20422;-91
2022/03/16 10:23:14;;;;;;;22.90;10.33;;;13.60;93.80;;;;;;5050727;28;20426;-91
2022/03/16 10:25:39;;;;;;;18.30;8.10;;;13.50;93.30;;;;;;5055567;28;20903;-91
2022/03/16 10:28:11;;;;;;;17.63;9.20;;;13.50;94.30;;;;;;5053880;28;20422;-90
2022/03/16 10:31:17;;;;;;;17.63;8.00;;;13.60;93.80;;;;;;5052300;28;20563;-91
2022/03/16 10:33:51;;;;;;;17.07;7.43;;;13.70;93.50;;;;;;5052113;28;20446;-92
2022/03/16 10:36:20;;;;;;;16.00;7.87;;;13.80;92.70;;;;;;5053025;28;20441;-92
2022/03/16 10:38:54;;;;;;;20.13;8.03;;;13.90;92.10;;;;;;5054683;28;20453;-92
2022/03/16 10:46:53;;;;;;;17.83;8.30;;;13.80;91.00;;;;;;5055280;28;20433;-91
2022/03/16 10:49:22;;;;;;;14.97;8.00;;;13.70;90.90;;;;;;5054007;28;20442;-90
2022/03/16 10:52:05;;;;;;;14.40;7.47;;;13.60;90.20;;;;;;5052923;28;20180;-90
2022/03/16 10:54:35;;;;;;;16.50;7.27;;;13.60;91.20;;;;;;5034450;28;20489;-90
2022/03/16 10:57:05;;;;;;;22.73;9.60;;;13.70;91.70;;;;;;5034208;28;21046;-92
2022/03/16 10:59:32;;;;;;;21.70;9.87;;;13.60;91.40;;;;;;5032159;28;20416;-90
2022/03/16 11:02:13;;;;;;;15.40;7.23;;;13.60;91.90;;;;;;5033091;28;20491;-90
2022/03/16 11:04:47;;;;;;;20.40;7.03;;;13.70;90.50;;;;;;5033465;28;20419;-91
2022/03/16 11:07:14;;;;;;;14.07;6.70;;;13.80;90.20;;;;;;5034258;28;20921;-91
2022/03/16 11:09:41;;;;;;;17.70;7.30;;;14.00;90.70;;;;;;5033708;28;20446;-90
2022/03/16 11:14:52;;;;;;;21.67;8.67;;;14.00;90.10;;;;;;5034507;28;20449;-92
2022/03/16 11:17:19;;;;;;;16.60;7.23;;;14.20;90.40;;;;;;5033704;28;20490;-91
2022/03/16 11:19:47;;;;;;;15.00;7.50;;;14.40;90.10;;;;;;5032626;28;20408;-92
2022/03/16 11:22:24;;;;;;;16.53;7.13;;;14.40;89.00;;;;;;5032609;28;20892;-91
2022/03/16 11:25:07;;;;;;;15.17;6.20;;;14.40;89.40;;;;;;5033331;28;20416;-91
2022/03/16 11:27:51;;;;;;;12.83;6.30;;;14.60;88.70;;;;;;5033078;28;20430;-90
2022/03/16 11:30:29;;;;;;;15.60;7.60;;;14.50;87.80;;;;;;5031282;28;20434;-89
2022/03/16 11:33:10;;;;;;;14.73;6.30;;;14.50;89.60;;;;;;5032682;28;20530;-91
2022/03/16 11:35:50;;;;;;;15.80;7.00;;;14.70;87.40;;;;;;5032473;28;20473;-91
2022/03/16 11:38:16;;;;;;;19.50;8.50;;;14.80;87.30;;;;;;5033014;28;20849;-91
2022/03/16 11:40:51;;;;;;;14.10;7.60;;;14.90;88.40;;;;;;5033496;28;20924;-91
2022/03/16 11:43:22;;;;;;;13.17;6.60;;;15.10;87.40;;;;;;5032427;28;20463;-92
2022/03/16 11:45:54;;;;;;;13.90;7.60;;;15.10;86.60;;;;;;5032886;28;20419;-92
2022/03/16 11:48:33;;;;;;;16.87;7.70;;;15.00;85.30;;;;;;5032448;28;20423;-92
2022/03/16 11:51:16;;;;;;;15.70;7.60;;;14.90;86.40;;;;;;5032315;28;20476;-92
2022/03/16 11:53:54;;;;;;;18.03;7.17;;;14.60;87.50;;;;;;5044804;28;21089;-91
2022/03/16 11:56:26;;;;;;;16.20;7.17;;;14.50;87.40;;;;;;5053154;28;20784;-91
2022/03/16 11:58:54;;;;;;;20.67;7.97;;;14.40;87.60;;;;;;5051628;28;20971;-92
2022/03/16 12:01:34;;;;;;;20.00;8.60;;;14.70;88.10;;;;;;5051522;28;20613;-92
2022/03/16 12:04:19;;;;;;;14.57;7.27;;;15.00;89.30;;;;;;5052266;28;20530;-91
2022/03/16 12:06:51;;;;;;;18.97;8.53;;;15.30;88.20;;;;;;5053026;28;20681;-92
2022/03/16 12:09:29;;;;;;;15.03;6.83;;;15.40;85.90;;;;;;5050980;28;20419;-90
2022/03/16 12:15:11;;;;;;;13.40;7.87;;;15.20;86.70;;;;;;5053035;28;20460;-91
2022/03/16 12:18:00;;;;;;;13.27;6.03;;;14.90;85.40;;;;;;5050308;28;20995;-91
2022/03/16 12:20:36;;;;;;;14.27;7.70;;;14.70;85.90;;;;;;5043434;28;20429;-90
2022/03/16 12:23:14;;;;;;;13.07;7.00;;;14.50;86.40;;;;;;5038153;28;20506;-92
2022/03/16 12:25:42;;;;;;;14.33;6.13;;;14.60;85.90;;;;;;5031275;28;20429;-91
2022/03/16 12:31:07;;;;;;;10.50;6.03;;;15.50;84.90;;;;;;5031988;28;20465;-92
2022/03/16 12:33:39;;;;;;;11.80;6.50;;;16.00;83.90;;;;;;5031130;28;20475;-93
2022/03/16 12:36:10;;;;;;;15.90;6.30;;;16.30;83.10;;;;;;5031493;28;20928;-91
2022/03/16 12:38:37;;;;;;;11.80;5.90;;;16.70;84.60;;;;;;5030908;28;20445;-91
2022/03/16 12:43:49;;;;;;;10.10;5.53;;;17.20;82.00;;;;;;5032730;28;20493;-91
2022/03/16 12:46:32;;;;;;;15.50;6.73;;;17.50;80.50;;;;;;5030535;28;20423;-90
2022/03/16 12:49:01;;;;;;;11.57;6.93;;;17.40;80.70;;;;;;5030931;28;20191;-91
2022/03/16 12:51:38;;;;;;;15.47;7.63;;;17.20;81.60;;;;;;5032651;28;20503;-91
2022/03/16 12:54:05;;;;;;;19.13;7.13;;;17.20;81.30;;;;;;5055049;28;20457;-91
2022/03/16 12:56:36;;;;;;;14.97;7.67;;;17.30;82.10;;;;;;5052885;28;20490;-91
2022/03/16 12:59:02;;;;;;;11.43;6.37;;;17.50;80.60;;;;;;5055093;28;20407;-91
2022/03/16 13:01:29;;;;;;;9.77;5.53;;;17.70;81.50;;;;;;5053386;28;20430;-92
2022/03/16 13:04:00;;;;;;;12.57;5.47;;;17.80;79.60;;;;;;5052224;28;20211;-91
2022/03/16 13:06:26;;;;;;;14.67;6.13;;;17.90;80.10;;;;;;5054097;28;20498;-91
2022/03/16 13:08:52;;;;;;;11.23;5.40;;;18.10;79.30;;;;;;5031981;28;20920;-91
2022/03/16 13:11:28;;;;;;;12.57;6.37;;;18.20;77.80;;;;;;5029732;28;20434;-91
2022/03/16 13:14:12;;;;;;;9.00;4.13;;;18.30;79.50;;;;;;5030053;28;20202;-91
2022/03/16 13:16:55;;;;;;;17.93;7.07;;;18.40;77.00;;;;;;5030353;28;20478;-91
2022/03/16 13:19:26;;;;;;;9.00;4.73;;;18.50;78.20;;;;;;5031217;28;20415;-90
2022/03/16 13:22:02;;;;;;;16.17;6.77;;;18.80;76.10;;;;;;5034664;28;20461;-91
2022/03/16 13:24:29;;;;;;;14.53;8.67;;;19.00;77.30;;;;;;5030516;28;20447;-91
2022/03/16 13:26:55;;;;;;;15.40;8.30;;;19.00;78.70;;;;;;5034245;28;20419;-90
2022/03/16 13:29:21;;;;;;;16.00;9.40;;;19.20;80.20;;;;;;5031377;28;20427;-91
2022/03/16 13:31:55;;;;;;;15.83;8.87;;;19.30;79.50;;;;;;5030979;28;20429;-90
2022/03/16 13:34:21;;;;;;;17.13;8.57;;;19.30;78.60;;;;;;5030978;28;20227;-92
2022/03/16 13:36:48;;;;;;;14.27;7.80;;;19.20;79.40;;;;;;5032026;28;20659;-91
2022/03/16 13:39:17;;;;;;;16.13;7.90;;;19.20;78.00;;;;;;5031623;28;20203;-91
2022/03/16 13:42:12;;;;;;;14.57;7.67;;;19.10;78.30;;;;;;5032471;28;20446;-90
2022/03/16 13:44:42;;;;;;;14.20;7.03;;;19.10;78.70;;;;;;5031861;28;20423;-91
2022/03/16 13:47:17;;;;;;;11.80;6.90;;;19.10;78.40;;;;;;5031222;28;20464;-91
2022/03/16 13:49:44;;;;;;;11.57;6.73;;;19.00;78.00;;;;;;5030985;28;20441;-90
2022/03/16 13:52:12;;;;;;;10.57;6.60;;;18.70;77.60;;;;;;5029947;28;20428;-90
2022/03/16 13:54:38;;;;;;;14.80;6.53;;;18.40;78.20;;;;;;5029548;28;20476;-89
2022/03/16 13:57:11;;;;;;;13.60;6.20;;;18.30;78.40;;;;;;5030812;28;20454;-91
2022/03/16 13:59:38;;;;;;;15.43;7.27;;;17.80;77.70;;;;;;5032444;28;20177;-90
2022/03/16 14:02:20;;;;;;;14.13;6.87;;;17.10;78.40;;;;;;5034956;28;20437;-89